createdAt,value
2022-08-26T00:01:56.787Z,96088.75
2022-08-26T00:04:25.782Z,96081.41
2022-08-26T00:06:54.965Z,96083.09
2022-08-26T00:09:24.946Z,96082.66
2022-08-26T00:11:54.660Z,96085.72
2022-08-26T00:14:22.899Z,96076.66
2022-08-26T00:16:52.533Z,96088.06
2022-08-26T00:19:22.420Z,96082.41
2022-08-26T00:21:50.460Z,96087.09
2022-08-26T00:24:21.013Z,96085.84
2022-08-26T00:26:48.541Z,96080.34
2022-08-26T00:29:16.402Z,96081.44
2022-08-26T00:31:45.082Z,96076.91
2022-08-26T00:34:13.924Z,96086.13
2022-08-26T00:36:41.128Z,96082.38
2022-08-26T00:39:09.065Z,96084.59
2022-08-26T00:41:40.101Z,96077.69
2022-08-26T00:44:08.281Z,96068.31
2022-08-26T00:46:46.425Z,96069.53
2022-08-26T00:49:20.042Z,96071.59
2022-08-26T00:51:53.160Z,96064.53
2022-08-26T00:54:23.180Z,96075.19
2022-08-26T00:57:00.071Z,96073.78
2022-08-26T00:59:29.489Z,96068.75
2022-08-26T01:02:02.741Z,96075.50
2022-08-26T01:04:31.662Z,96071.88
2022-08-26T01:07:00.304Z,96074.50
2022-08-26T01:09:28.442Z,96080.78
2022-08-26T01:11:59.202Z,96080.28
2022-08-26T01:14:29.936Z,96081.81
2022-08-26T01:16:57.281Z,96077.13
2022-08-26T01:19:31.482Z,96071.50
2022-08-26T01:22:02.980Z,96069.44
2022-08-26T01:24:31.221Z,96070.72
2022-08-26T01:27:01.880Z,96070.38
2022-08-26T01:29:30.240Z,96066.19
2022-08-26T01:31:59.007Z,96078.22
2022-08-26T01:34:37.863Z,96071.00
2022-08-26T01:37:13.620Z,96073.97
2022-08-26T01:39:45.078Z,96077.44
2022-08-26T01:42:15.121Z,96076.94
2022-08-26T01:44:59.720Z,96079.59
2022-08-26T01:47:30.144Z,96078.97
2022-08-26T01:50:02.898Z,96081.31
2022-08-26T01:52:32.881Z,96079.44
2022-08-26T01:55:01.128Z,96076.00
2022-08-26T01:57:29.301Z,96091.81
2022-08-26T01:59:58.639Z,96084.63
2022-08-26T02:02:26.542Z,96081.97
2022-08-26T02:05:01.861Z,96081.47
2022-08-26T02:07:29.920Z,96076.16
2022-08-26T02:09:57.162Z,96073.03
2022-08-26T02:12:26.676Z,96080.25
2022-08-26T02:14:58.460Z,96082.28
2022-08-26T02:17:33.199Z,96075.06
2022-08-26T02:20:02.940Z,96068.06
2022-08-26T02:22:31.100Z,96072.59
2022-08-26T02:25:12.180Z,96067.72
2022-08-26T02:27:39.943Z,96073.03
2022-08-26T02:30:12.442Z,96070.09
2022-08-26T02:32:41.438Z,96067.13
2022-08-26T02:35:10.402Z,96072.25
2022-08-26T02:37:38.321Z,96071.16
2022-08-26T02:40:12.289Z,96071.75
2022-08-26T02:42:39.385Z,96068.63
2022-08-26T02:45:07.679Z,96062.84
2022-08-26T02:47:35.180Z,96067.03
2022-08-26T02:50:02.276Z,96064.81
2022-08-26T02:52:29.340Z,96061.88
2022-08-26T02:54:56.401Z,96065.31
2022-08-26T02:57:23.981Z,96053.56
2022-08-26T02:59:51.584Z,96056.41
2022-08-26T03:02:18.756Z,96053.13
2022-08-26T03:04:57.725Z,96050.16
2022-08-26T03:07:30.001Z,96039.22
2022-08-26T03:09:58.120Z,96039.66
2022-08-26T03:12:25.591Z,96039.66
2022-08-26T03:14:53.480Z,96039.53
2022-08-26T03:17:21.380Z,96033.09
2022-08-26T03:19:51.824Z,96037.75
2022-08-26T03:22:21.841Z,96029.66
2022-08-26T03:24:49.783Z,96031.69
2022-08-26T03:27:16.820Z,96020.59
2022-08-26T03:30:02.921Z,96022.78
2022-08-26T03:32:29.968Z,96022.47
2022-08-26T03:34:58.120Z,96036.09
2022-08-26T03:37:25.340Z,96038.91
2022-08-26T03:39:53.024Z,96040.00
2022-08-26T03:42:22.360Z,96029.06
2022-08-26T03:44:50.089Z,96028.28
2022-08-26T03:47:17.440Z,96030.59
2022-08-26T03:49:44.520Z,96026.50
2022-08-26T03:52:12.329Z,96030.16
2022-08-26T03:54:41.090Z,96032.81
2022-08-26T03:57:11.580Z,96032.63
2022-08-26T03:59:38.760Z,96036.56
2022-08-26T04:02:11.476Z,96029.81
2022-08-26T04:04:38.960Z,96037.50
2022-08-26T04:07:06.060Z,96035.13
2022-08-26T04:09:35.284Z,96033.25
2022-08-26T04:12:03.897Z,96026.94
2022-08-26T04:14:32.580Z,96020.53
2022-08-26T04:16:59.740Z,96012.38
2022-08-26T04:19:27.061Z,96020.84
2022-08-26T04:21:54.511Z,96020.06
2022-08-26T04:24:24.503Z,96022.06
2022-08-26T04:26:51.733Z,96021.59
2022-08-26T04:29:24.234Z,96027.22
2022-08-26T04:31:55.517Z,96024.09
2022-08-26T04:34:28.983Z,96025.47
2022-08-26T04:36:58.169Z,96030.50
2022-08-26T04:39:25.694Z,96030.66
2022-08-26T04:41:55.408Z,96029.56
2022-08-26T04:44:25.124Z,96028.78
2022-08-26T04:46:52.567Z,96030.34
2022-08-26T04:49:20.695Z,96026.91
2022-08-26T04:51:49.075Z,96027.38
2022-08-26T04:54:16.543Z,96018.47
2022-08-26T04:56:46.773Z,96023.69
2022-08-26T04:59:16.603Z,96030.59
2022-08-26T05:01:49.684Z,96031.81
2022-08-26T05:04:19.238Z,96027.94
2022-08-26T05:06:48.465Z,96030.47
2022-08-26T05:09:16.173Z,96029.63
2022-08-26T05:11:43.133Z,96038.88
2022-08-26T05:14:10.285Z,96032.53
2022-08-26T05:16:40.305Z,96031.47
2022-08-26T05:19:08.466Z,96034.31
2022-08-26T05:21:36.813Z,96029.91
2022-08-26T05:24:06.064Z,96040.31
2022-08-26T05:26:33.393Z,96038.44
2022-08-26T05:29:01.694Z,96037.66
2022-08-26T05:31:31.916Z,96045.34
2022-08-26T05:34:00.432Z,96047.38
2022-08-26T05:36:33.898Z,96050.66
2022-08-26T05:39:03.990Z,96052.22
2022-08-26T05:41:38.358Z,96042.66
2022-08-26T05:44:10.463Z,96046.91
2022-08-26T05:46:39.180Z,96043.78
2022-08-26T05:49:12.266Z,96043.91
2022-08-26T05:51:41.977Z,96042.19
2022-08-26T05:54:10.377Z,96040.47
2022-08-26T05:56:38.617Z,96041.22
2022-08-26T05:59:06.794Z,96039.47
2022-08-26T06:01:42.761Z,96040.56
2022-08-26T06:04:10.637Z,96041.63
2022-08-26T06:06:41.505Z,96043.03
2022-08-26T06:09:11.163Z,96045.50
2022-08-26T06:11:39.144Z,96046.47
2022-08-26T06:14:08.293Z,96039.84
2022-08-26T06:16:40.916Z,96048.91
2022-08-26T06:19:11.033Z,96049.19
2022-08-26T06:21:41.620Z,96044.78
2022-08-26T06:24:29.613Z,96043.84
2022-08-26T06:27:01.622Z,96040.34
2022-08-26T06:29:31.647Z,96042.22
2022-08-26T06:31:58.812Z,96040.59
2022-08-26T06:34:30.323Z,96042.88
2022-08-26T06:37:02.715Z,96043.13
2022-08-26T06:39:31.639Z,96038.38
2022-08-26T06:42:03.179Z,96037.88
2022-08-26T06:44:34.504Z,96042.97
2022-08-26T06:47:01.572Z,96041.56
2022-08-26T06:49:28.708Z,96046.50
2022-08-26T06:51:58.849Z,96044.75
2022-08-26T06:54:31.943Z,96040.00
2022-08-26T06:56:59.895Z,96042.94
2022-08-26T06:59:26.972Z,96038.16
2022-08-26T07:01:55.047Z,96036.50
2022-08-26T07:04:23.440Z,96038.00
2022-08-26T07:06:52.951Z,96039.59
2022-08-26T07:09:22.800Z,96038.75
2022-08-26T07:11:51.556Z,96042.78
2022-08-26T07:14:21.190Z,96034.97
2022-08-26T07:16:50.532Z,96038.56
2022-08-26T07:19:31.015Z,96026.97
2022-08-26T07:22:04.937Z,96034.91
2022-08-26T07:24:35.015Z,96030.56
2022-08-26T07:27:06.914Z,96029.44
2022-08-26T07:29:37.373Z,96027.53
2022-08-26T07:32:05.294Z,96038.50
2022-08-26T07:34:33.163Z,96033.25
2022-08-26T07:37:01.197Z,96033.59
2022-08-26T07:39:31.344Z,96024.28
2022-08-26T07:42:07.730Z,96033.00
2022-08-26T07:44:40.509Z,96019.25
2022-08-26T07:47:24.269Z,96021.47
2022-08-26T07:49:55.218Z,96021.66
2022-08-26T07:52:26.195Z,96021.03
2022-08-26T07:54:55.728Z,96030.31
2022-08-26T07:57:24.259Z,96026.91
2022-08-26T07:59:52.394Z,96023.53
2022-08-26T08:02:24.644Z,96008.31
2022-08-26T08:04:52.057Z,96021.16
2022-08-26T08:07:19.184Z,96013.75
2022-08-26T08:09:49.646Z,96012.16
2022-08-26T08:12:17.994Z,96017.47
2022-08-26T08:14:47.047Z,96013.53
2022-08-26T08:17:15.743Z,96014.25
2022-08-26T08:19:42.923Z,96013.03
2022-08-26T08:22:17.992Z,96008.34
2022-08-26T08:24:49.962Z,96007.84
2022-08-26T08:27:23.844Z,96003.94
2022-08-26T08:29:55.015Z,96004.72
2022-08-26T08:32:23.275Z,96001.88
2022-08-26T08:34:50.392Z,95999.00
2022-08-26T08:37:17.674Z,95994.63
2022-08-26T08:39:44.805Z,95992.53
2022-08-26T08:42:16.265Z,95988.09
2022-08-26T08:44:52.250Z,95993.59
2022-08-26T08:47:24.864Z,95995.66
2022-08-26T08:49:54.763Z,95991.38
2022-08-26T08:52:37.827Z,95983.09
2022-08-26T08:55:11.167Z,95986.38
2022-08-26T08:58:08.029Z,95986.91
2022-08-26T09:00:46.837Z,95986.66
2022-08-26T09:03:38.491Z,95988.19
2022-08-26T09:06:17.352Z,95983.38
2022-08-26T09:08:50.023Z,95990.50
2022-08-26T09:11:20.000Z,95985.69
2022-08-26T09:13:52.954Z,95992.06
2022-08-26T09:17:00.730Z,95990.97
2022-08-26T09:19:44.630Z,95997.06
2022-08-26T09:22:27.307Z,95984.44
2022-08-26T09:24:54.314Z,95986.94
2022-08-26T09:27:50.524Z,95990.63
2022-08-26T09:30:26.905Z,95987.41
2022-08-26T09:33:10.073Z,95987.19
2022-08-26T09:35:40.223Z,95990.56
2022-08-26T09:38:23.865Z,95986.59
2022-08-26T09:41:00.080Z,95985.81
2022-08-26T09:43:28.824Z,95998.94
2022-08-26T09:46:19.519Z,95988.03
2022-08-26T09:48:46.954Z,95989.28
2022-08-26T09:51:24.909Z,95989.00
2022-08-26T09:54:02.932Z,95992.28
2022-08-26T09:56:39.176Z,95988.50
2022-08-26T09:59:11.122Z,95991.94
2022-08-26T10:01:43.277Z,95985.13
2022-08-26T10:04:14.205Z,95988.75
2022-08-26T10:06:57.922Z,95973.34
2022-08-26T10:09:26.083Z,95972.34
2022-08-26T10:12:07.554Z,95970.44
2022-08-26T10:14:46.631Z,95968.53
2022-08-26T10:17:25.514Z,95971.34
2022-08-26T10:20:23.197Z,95965.78
2022-08-26T10:23:20.615Z,95965.16
2022-08-26T10:26:22.991Z,95966.03
2022-08-26T10:29:01.645Z,95960.66
2022-08-26T10:31:51.473Z,95965.34
2022-08-26T10:34:21.233Z,95962.66
2022-08-26T10:37:13.810Z,95958.47
2022-08-26T10:39:49.130Z,95951.13
2022-08-26T10:42:46.455Z,95954.22
2022-08-26T10:45:22.462Z,95951.50
2022-08-26T10:48:00.308Z,95954.63
2022-08-26T10:50:39.061Z,95957.75
2022-08-26T10:53:25.171Z,95945.38
2022-08-26T10:56:15.871Z,95944.56
2022-08-26T10:59:15.473Z,95949.22
2022-08-26T11:13:59.738Z,95937.97
2022-08-26T11:16:48.486Z,95939.91
2022-08-26T11:19:50.595Z,95932.53
2022-08-26T11:22:45.472Z,95937.53
2022-08-26T11:25:19.612Z,95933.22
2022-08-26T11:27:52.635Z,95935.16
2022-08-26T11:30:20.425Z,95925.84
2022-08-26T11:32:53.926Z,95931.28
2022-08-26T11:35:20.934Z,95931.22
2022-08-26T11:37:48.468Z,95929.72
2022-08-26T11:40:22.457Z,95925.78
2022-08-26T11:42:57.313Z,95922.66
2022-08-26T11:45:37.810Z,95915.59
2022-08-26T11:48:21.804Z,95917.81
2022-08-26T11:51:03.084Z,95916.94
2022-08-26T11:53:33.345Z,95904.44
2022-08-26T11:56:04.864Z,95912.06
2022-08-26T11:58:32.423Z,95908.00
2022-08-26T12:01:03.565Z,95900.22
2022-08-26T12:03:39.997Z,95892.91
2022-08-26T12:09:28.973Z,95898.06
2022-08-26T12:12:12.125Z,95886.84
2022-08-26T12:14:39.775Z,95893.16
2022-08-26T12:17:11.455Z,95886.72
2022-08-26T12:19:39.024Z,95888.63
2022-08-26T12:22:26.076Z,95883.03
2022-08-26T12:25:04.366Z,95881.66
2022-08-26T12:27:41.745Z,95878.69
2022-08-26T12:30:14.918Z,95885.03
2022-08-26T12:33:03.306Z,95880.25
2022-08-26T12:35:49.300Z,95878.47
2022-08-26T12:38:20.328Z,95875.94
2022-08-26T12:40:50.325Z,95862.59
2022-08-26T12:43:37.603Z,95869.91
2022-08-26T12:46:06.781Z,95871.44
2022-08-26T12:48:38.724Z,95863.88
2022-08-26T12:51:20.285Z,95859.38
2022-08-26T12:53:47.384Z,95861.63
2022-08-26T12:56:39.168Z,95860.19
2022-08-26T12:59:25.304Z,95851.13
2022-08-26T13:01:53.811Z,95844.78
2022-08-26T13:04:41.770Z,95845.78
2022-08-26T13:07:15.796Z,95841.00
2022-08-26T13:09:43.037Z,95838.81
2022-08-26T13:12:11.785Z,95835.47
2022-08-26T13:14:38.876Z,95833.63
2022-08-26T13:17:05.918Z,95830.44
2022-08-26T13:19:33.214Z,95825.72
2022-08-26T13:22:01.093Z,95823.94
2022-08-26T13:24:41.039Z,95819.44
2022-08-26T13:27:11.495Z,95813.94
2022-08-26T13:29:38.670Z,95809.47
2022-08-26T13:32:07.965Z,95818.69
2022-08-26T13:34:38.106Z,95816.25
2022-08-26T13:37:05.492Z,95805.47
2022-08-26T13:39:32.554Z,95810.53
2022-08-26T13:42:00.337Z,95800.38
2022-08-26T13:44:27.905Z,95798.56
2022-08-26T13:46:55.097Z,95804.72
2022-08-26T13:49:22.844Z,95802.66
2022-08-26T13:51:49.924Z,95795.09
2022-08-26T13:54:17.125Z,95808.34
2022-08-26T13:56:44.134Z,95797.63
2022-08-26T13:59:11.424Z,95793.16
2022-08-26T14:01:39.924Z,95787.53
2022-08-26T14:04:07.738Z,95790.56
2022-08-26T14:06:34.695Z,95779.47
2022-08-26T14:09:01.789Z,95779.97
2022-08-26T14:11:30.345Z,95784.66
2022-08-26T14:14:08.443Z,95781.00
2022-08-26T14:16:58.956Z,95776.72
2022-08-26T14:19:26.865Z,95781.06
2022-08-26T14:21:53.865Z,95782.44
2022-08-26T14:24:20.925Z,95773.22
2022-08-26T14:26:48.718Z,95770.34
2022-08-26T14:29:16.872Z,95762.53
2022-08-26T14:31:44.382Z,95769.69
2022-08-26T14:34:13.305Z,95765.44
2022-08-26T14:36:40.294Z,95762.59
2022-08-26T14:39:11.074Z,95761.75
2022-08-26T14:41:53.841Z,95771.19
2022-08-26T14:44:24.888Z,95762.66
2022-08-26T14:46:53.403Z,95754.44
2022-08-26T14:49:22.260Z,95753.34
2022-08-26T14:51:49.417Z,95750.03
2022-08-26T14:54:18.355Z,95746.53
2022-08-26T14:56:51.954Z,95749.09
2022-08-26T14:59:25.471Z,95742.78
2022-08-26T15:01:53.692Z,95751.31
2022-08-26T15:04:21.746Z,95744.94
2022-08-26T15:06:49.894Z,95753.09
2022-08-26T15:09:17.246Z,95741.34
2022-08-26T15:11:44.743Z,95740.06
2022-08-26T15:14:19.852Z,95736.97
2022-08-26T15:16:49.029Z,95740.59
2022-08-26T15:19:17.005Z,95736.94
2022-08-26T15:21:45.629Z,95732.63
2022-08-26T15:24:13.606Z,95731.25
2022-08-26T15:26:40.967Z,95737.78
2022-08-26T15:29:08.037Z,95737.69
2022-08-26T15:31:35.766Z,95738.91
2022-08-26T15:34:13.256Z,95734.72
2022-08-26T15:36:45.054Z,95739.22
2022-08-26T15:39:12.859Z,95730.91
2022-08-26T15:41:41.905Z,95736.88
2022-08-26T15:44:10.594Z,95734.78
2022-08-26T15:46:38.413Z,95729.91
2022-08-26T15:49:06.507Z,95732.34
2022-08-26T15:51:45.676Z,95728.94
2022-08-26T15:54:14.468Z,95731.75
2022-08-26T15:56:41.663Z,95726.38
2022-08-26T15:59:11.921Z,95725.25
2022-08-26T16:01:39.952Z,95721.41
2022-08-26T16:04:07.406Z,95716.84
2022-08-26T16:06:37.406Z,95712.16
2022-08-26T16:09:05.787Z,95713.38
2022-08-26T16:11:34.264Z,95707.59
2022-08-26T16:14:01.426Z,95708.00
2022-08-26T16:16:28.543Z,95706.84
2022-08-26T16:18:55.765Z,95710.34
2022-08-26T16:21:28.119Z,95701.81
2022-08-26T16:23:57.263Z,95703.75
2022-08-26T16:26:30.056Z,95706.81
2022-08-26T16:28:57.086Z,95707.97
2022-08-26T16:31:24.431Z,95702.16
2022-08-26T16:33:51.758Z,95698.28
2022-08-26T16:36:20.076Z,95707.56
2022-08-26T16:38:56.622Z,95706.75
2022-08-26T16:41:27.667Z,95700.56
2022-08-26T16:43:55.402Z,95702.81
2022-08-26T16:46:25.897Z,95707.03
2022-08-26T16:48:55.325Z,95710.09
2022-08-26T16:51:23.855Z,95713.56
2022-08-26T16:53:51.786Z,95718.53
2022-08-26T16:56:22.824Z,95722.34
2022-08-26T16:58:50.457Z,95719.53
2022-08-26T17:01:17.995Z,95715.19
2022-08-26T17:03:45.074Z,95718.63
2022-08-26T17:06:12.434Z,95720.50
2022-08-26T17:08:41.114Z,95723.91
2022-08-26T17:11:08.934Z,95725.41
2022-08-26T17:13:36.752Z,95722.22
2022-08-26T17:16:07.670Z,95725.25
2022-08-26T17:18:36.084Z,95721.31
2022-08-26T17:21:04.274Z,95717.72
2022-08-26T17:23:31.824Z,95722.25
2022-08-26T17:25:58.792Z,95716.34
2022-08-26T17:28:25.887Z,95727.06
2022-08-26T17:30:52.921Z,95723.09
2022-08-26T17:33:24.534Z,95720.72
2022-08-26T17:35:52.034Z,95732.53
2022-08-26T17:38:19.756Z,95726.69
2022-08-26T17:40:46.719Z,95723.81
2022-08-26T17:43:13.799Z,95724.13
2022-08-26T17:45:40.906Z,95729.00
2022-08-26T17:48:08.873Z,95740.13
2022-08-26T17:50:39.395Z,95740.38
2022-08-26T17:53:06.458Z,95737.59
2022-08-26T17:55:33.858Z,95738.28
2022-08-26T17:58:00.927Z,95733.19
2022-08-26T18:00:33.344Z,95745.78
2022-08-26T18:03:00.461Z,95748.75
2022-08-26T18:05:27.715Z,95746.31
2022-08-26T18:07:54.752Z,95742.38
2022-08-26T18:10:22.448Z,95738.03
2022-08-26T18:12:49.466Z,95740.28
2022-08-26T18:15:18.702Z,95746.31
2022-08-26T18:17:46.022Z,95753.13
2022-08-26T18:20:16.923Z,95755.28
2022-08-26T18:22:44.994Z,95766.59
2022-08-26T18:25:12.997Z,95759.91
2022-08-26T18:27:40.179Z,95767.19
2022-08-26T18:30:16.607Z,95768.19
2022-08-26T18:32:44.310Z,95770.41
2022-08-26T18:35:11.745Z,95759.09
2022-08-26T18:37:38.948Z,95761.69
2022-08-26T18:40:08.674Z,95766.25
2022-08-26T18:42:36.444Z,95765.38
2022-08-26T18:45:06.204Z,95776.84
2022-08-26T18:47:33.706Z,95772.03
2022-08-26T18:50:01.406Z,95773.09
2022-08-26T18:52:28.544Z,95786.09
2022-08-26T18:54:55.817Z,95780.91
2022-08-26T18:57:22.965Z,95780.00
2022-08-26T18:59:50.374Z,95781.50
2022-08-26T19:02:17.719Z,95789.03
2022-08-26T19:04:44.786Z,95790.09
2022-08-26T19:07:12.001Z,95786.56
2022-08-26T19:09:38.995Z,95790.63
2022-08-26T19:12:06.423Z,95792.47
2022-08-26T19:14:36.043Z,95792.38
2022-08-26T19:17:04.696Z,95802.63
2022-08-26T19:19:32.375Z,95804.53
2022-08-26T19:21:59.920Z,95809.63
2022-08-26T19:24:28.069Z,95814.28
2022-08-26T19:26:58.863Z,95810.31
2022-08-26T19:29:29.075Z,95812.56
2022-08-26T19:31:56.766Z,95815.97
2022-08-26T19:34:24.854Z,95818.91
2022-08-26T19:36:53.742Z,95819.50
2022-08-26T19:39:21.904Z,95817.97
2022-08-26T19:41:49.652Z,95823.56
2022-08-26T19:44:37.727Z,95821.06
2022-08-26T19:47:07.269Z,95819.53
2022-08-26T19:49:35.135Z,95823.66
2022-08-26T19:52:06.227Z,95825.81
2022-08-26T19:54:34.375Z,95822.66
2022-08-26T19:57:01.487Z,95819.19
2022-08-26T19:59:29.446Z,95824.13
2022-08-26T20:02:01.210Z,95820.56
2022-08-26T20:04:31.120Z,95821.69
2022-08-26T20:07:00.406Z,95821.69
2022-08-26T20:09:33.056Z,95818.56
2022-08-26T20:12:01.367Z,95815.81
2022-08-26T20:14:30.057Z,95818.50
2022-08-26T20:16:57.528Z,95824.44
2022-08-26T20:19:43.352Z,95822.88
2022-08-26T20:22:11.482Z,95821.31
2022-08-26T20:24:38.807Z,95814.31
2022-08-26T20:27:08.132Z,95816.47
2022-08-26T20:29:36.541Z,95811.78
2022-08-26T20:32:06.451Z,95814.91
2022-08-26T20:34:34.475Z,95814.91
2022-08-26T20:37:02.575Z,95815.56
2022-08-26T20:39:30.464Z,95813.22
2022-08-26T20:41:58.107Z,95814.78
2022-08-26T20:44:25.449Z,95813.75
2022-08-26T20:46:52.826Z,95815.63
2022-08-26T20:49:19.868Z,95815.06
2022-08-26T20:51:51.058Z,95824.88
2022-08-26T20:54:19.530Z,95819.19
2022-08-26T20:56:46.655Z,95824.66
2022-08-26T20:59:14.446Z,95811.13
2022-08-26T21:01:42.521Z,95809.50
2022-08-26T21:04:18.890Z,95813.09
2022-08-26T21:06:52.712Z,95815.63
2022-08-26T21:09:24.866Z,95811.22
2022-08-26T21:11:53.090Z,95811.78
2022-08-26T21:14:20.836Z,95813.38
2022-08-26T21:16:48.037Z,95817.75
2022-08-26T21:19:18.156Z,95820.00
2022-08-26T21:21:46.869Z,95823.72
2022-08-26T21:24:14.598Z,95818.22
2022-08-26T21:26:42.048Z,95821.47
2022-08-26T21:29:10.080Z,95815.09
2022-08-26T21:31:42.281Z,95818.00
2022-08-26T21:34:13.411Z,95825.25
2022-08-26T21:36:40.387Z,95815.66
2022-08-26T21:39:11.470Z,95821.47
2022-08-26T21:41:40.969Z,95819.22
2022-08-26T21:44:08.445Z,95814.22
2022-08-26T21:46:37.460Z,95808.97
2022-08-26T21:49:07.635Z,95820.44
2022-08-26T21:51:37.745Z,95821.81
2022-08-26T21:54:10.755Z,95811.44
2022-08-26T21:56:41.505Z,95809.97
2022-08-26T21:59:09.469Z,95809.31
2022-08-26T22:01:38.049Z,95808.75
2022-08-26T22:04:07.315Z,95812.50
2022-08-26T22:06:39.614Z,95804.25
2022-08-26T22:09:06.667Z,95806.06
2022-08-26T22:11:33.767Z,95798.03
2022-08-26T22:14:00.904Z,95796.34
2022-08-26T22:16:28.880Z,95790.56
2022-08-26T22:18:55.893Z,95788.97
2022-08-26T22:21:24.724Z,95796.53
2022-08-26T22:23:52.566Z,95799.06
2022-08-26T22:26:27.384Z,95803.66
2022-08-26T22:28:59.226Z,95799.44
2022-08-26T22:31:38.133Z,95795.84
2022-08-26T22:34:12.205Z,95800.63
2022-08-26T22:36:43.961Z,95795.59
2022-08-26T22:39:13.855Z,95800.63
2022-08-26T22:41:43.173Z,95794.38
2022-08-26T22:44:12.059Z,95796.59
2022-08-26T22:46:40.145Z,95799.03
2022-08-26T22:49:07.965Z,95790.44
2022-08-26T22:51:35.027Z,95793.00
2022-08-26T22:54:02.108Z,95796.44
2022-08-26T22:56:29.128Z,95794.56
2022-08-26T22:58:56.289Z,95792.66
2022-08-26T23:01:24.088Z,95795.44
2022-08-26T23:03:51.181Z,95791.66
2022-08-26T23:06:18.214Z,95787.44
2022-08-26T23:08:46.615Z,95783.53
2022-08-26T23:11:15.224Z,95778.63
2022-08-26T23:13:42.658Z,95786.31
2022-08-26T23:16:11.930Z,95789.00
2022-08-26T23:18:41.034Z,95781.75
2022-08-26T23:21:08.550Z,95789.13
2022-08-26T23:23:37.194Z,95783.00
2022-08-26T23:26:06.444Z,95777.34
2022-08-26T23:28:34.955Z,95777.19
2022-08-26T23:31:02.066Z,95774.66
2022-08-26T23:33:49.515Z,95783.47
2022-08-26T23:36:22.559Z,95776.56
2022-08-26T23:38:52.783Z,95783.25
2022-08-26T23:41:22.896Z,95773.66
2022-08-26T23:43:50.825Z,95776.00
2022-08-26T23:46:18.625Z,95782.00
2022-08-26T23:48:45.835Z,95773.63
2022-08-26T23:51:31.445Z,95767.59
2022-08-26T23:53:58.537Z,95762.22
2022-08-26T23:56:26.740Z,95764.00
2022-08-26T23:58:54.893Z,95766.66
